Time;durP1;ratioP1;P1;durP2;ratioP2;P2;SDS_P1;SDS_P2;PMS_P1;PMS_P2;Temp;Humidity;BMP_temperature;BMP_pressure;BME280_temperature;BME280_humidity;BME280_pressure;Samples;Min_cycle;Max_cycle;Signal;HPM_P1;HPM_P2
2022/03/04 00:02:07;;;;;;;47.15;24.50;;;;;;;;;;5046982;28;20040;-80
2022/03/04 00:04:37;;;;;;;41.85;23.42;;;;;;;;;;5064816;28;20032;-81
2022/03/04 00:07:03;;;;;;;39.08;23.00;;;;;;;;;;5048483;28;20119;-82
2022/03/04 00:09:29;;;;;;;43.60;22.58;;;;;;;;;;5066623;28;20044;-81
2022/03/04 00:11:56;;;;;;;45.20;23.95;;;;;;;;;;5049024;28;20044;-80
2022/03/04 00:14:22;;;;;;;45.90;23.77;;;;;;;;;;5046182;28;20040;-80
2022/03/04 00:16:48;;;;;;;42.65;24.60;;;;;;;;;;5064133;28;20049;-81
2022/03/04 00:19:14;;;;;;;45.30;23.98;;;;;;;;;;5049052;28;20029;-81
2022/03/04 00:21:41;;;;;;;45.00;23.73;;;;;;;;;;5048324;28;20032;-82
2022/03/04 00:24:07;;;;;;;41.00;23.10;;;;;;;;;;5063797;28;20041;-83
2022/03/04 00:26:33;;;;;;;42.70;23.90;;;;;;;;;;5046549;28;20052;-80
2022/03/04 00:28:59;;;;;;;44.95;23.77;;;;;;;;;;5045858;28;20056;-80
2022/03/04 00:31:25;;;;;;;44.50;23.67;;;;;;;;;;5063236;28;20036;-81
2022/03/04 00:33:51;;;;;;;44.80;24.05;;;;;;;;;;5074546;28;20040;-77
2022/03/04 00:36:21;;;;;;;47.00;24.70;;;;;;;;;;5063316;28;20044;-79
2022/03/04 00:38:47;;;;;;;43.25;23.88;;;;;;;;;;5091152;28;20047;-82
2022/03/04 00:41:13;;;;;;;47.35;24.15;;;;;;;;;;5065551;28;20041;-81
2022/03/04 00:43:39;;;;;;;49.08;24.88;;;;;;;;;;5083481;28;20041;-80
2022/03/04 00:46:05;;;;;;;45.30;25.00;;;;;;;;;;5055365;28;20052;-82
2022/03/04 00:48:31;;;;;;;44.92;25.17;;;;;;;;;;5048594;28;20044;-83
2022/03/04 00:50:57;;;;;;;49.08;25.17;;;;;;;;;;5065017;28;20036;-83
2022/03/04 00:53:23;;;;;;;44.03;24.48;;;;;;;;;;5064996;28;20051;-81
2022/03/04 00:55:49;;;;;;;47.67;24.73;;;;;;;;;;5048539;28;20115;-81
2022/03/04 00:58:16;;;;;;;45.33;24.83;;;;;;;;;;5049259;28;20044;-81
2022/03/04 01:00:42;;;;;;;46.55;24.73;;;;;;;;;;5065948;28;20172;-81
2022/03/04 01:03:08;;;;;;;50.95;25.75;;;;;;;;;;5083391;28;20032;-81
2022/03/04 01:05:34;;;;;;;45.17;24.20;;;;;;;;;;5064856;28;20038;-82
2022/03/04 01:08:00;;;;;;;47.00;24.02;;;;;;;;;;5064209;28;20356;-82
2022/03/04 01:10:26;;;;;;;46.75;24.38;;;;;;;;;;5047792;28;20460;-79
2022/03/04 01:12:52;;;;;;;43.85;24.10;;;;;;;;;;5045598;28;20043;-79
2022/03/04 01:15:18;;;;;;;43.83;24.27;;;;;;;;;;5063817;28;20037;-79
2022/03/04 01:17:44;;;;;;;45.15;24.63;;;;;;;;;;5047640;28;20071;-82
2022/03/04 01:20:10;;;;;;;42.40;24.52;;;;;;;;;;5062782;28;20341;-80
2022/03/04 01:22:36;;;;;;;43.35;24.20;;;;;;;;;;5044746;28;20047;-80
2022/03/04 01:25:02;;;;;;;50.13;24.65;;;;;;;;;;5061367;28;20033;-80
2022/03/04 01:27:28;;;;;;;46.10;26.10;;;;;;;;;;5044964;28;20066;-80
2022/03/04 01:29:54;;;;;;;46.17;24.88;;;;;;;;;;5044329;28;20047;-80
2022/03/04 01:32:20;;;;;;;49.55;24.90;;;;;;;;;;5044796;28;20036;-80
2022/03/04 01:34:46;;;;;;;49.00;25.55;;;;;;;;;;5079753;28;20044;-81
2022/03/04 01:37:12;;;;;;;46.15;25.50;;;;;;;;;;5046661;28;20036;-81
2022/03/04 01:39:38;;;;;;;49.55;25.15;;;;;;;;;;5062462;28;20040;-79
2022/03/04 01:42:05;;;;;;;47.65;24.63;;;;;;;;;;5044285;28;20095;-80
2022/03/04 01:44:31;;;;;;;50.90;25.92;;;;;;;;;;5062097;28;20063;-82
2022/03/04 01:46:57;;;;;;;44.47;24.50;;;;;;;;;;5048290;28;20037;-81
2022/03/04 01:49:23;;;;;;;47.30;25.85;;;;;;;;;;5064305;28;20041;-80
2022/03/04 01:51:49;;;;;;;49.58;25.73;;;;;;;;;;5053891;28;20075;-81
2022/03/04 01:54:15;;;;;;;48.15;25.90;;;;;;;;;;5064598;28;20097;-81
2022/03/04 01:56:41;;;;;;;52.25;27.05;;;;;;;;;;5047831;28;20182;-82
2022/03/04 01:59:07;;;;;;;48.72;25.63;;;;;;;;;;5081403;28;20128;-81
2022/03/04 02:01:35;;;;;;;54.35;27.75;;;;;;;;;;5047648;28;20055;-84
2022/03/04 02:04:01;;;;;;;50.33;26.85;;;;;;;;;;5047956;28;20052;-80
2022/03/04 02:06:27;;;;;;;54.75;27.42;;;;;;;;;;5064937;28;20055;-82
2022/03/04 02:08:53;;;;;;;47.95;25.95;;;;;;;;;;5048230;28;20044;-82
2022/03/04 02:11:19;;;;;;;46.70;25.17;;;;;;;;;;5063909;28;20040;-81
2022/03/04 02:13:45;;;;;;;51.22;26.73;;;;;;;;;;5063934;28;20050;-82
2022/03/04 02:16:18;;;;;;;49.95;26.33;;;;;;;;;;5064102;28;20045;-81
2022/03/04 02:18:44;;;;;;;50.17;25.95;;;;;;;;;;5064367;28;20363;-81
2022/03/04 02:21:11;;;;;;;49.97;26.88;;;;;;;;;;5064092;28;20086;-81
2022/03/04 02:23:37;;;;;;;46.83;26.73;;;;;;;;;;5046464;28;20052;-82
2022/03/04 02:26:04;;;;;;;53.60;27.95;;;;;;;;;;5045723;28;20044;-80
2022/03/04 02:28:31;;;;;;;53.00;27.67;;;;;;;;;;5062727;28;20062;-81
2022/03/04 02:30:57;;;;;;;56.00;27.63;;;;;;;;;;5045195;28;20044;-80
2022/03/04 02:33:24;;;;;;;52.78;26.77;;;;;;;;;;5064526;28;20028;-79
2022/03/04 02:35:50;;;;;;;51.65;27.35;;;;;;;;;;5095380;28;20502;-80
2022/03/04 02:38:16;;;;;;;51.30;27.27;;;;;;;;;;5080479;28;20048;-80
2022/03/04 02:40:42;;;;;;;54.03;28.88;;;;;;;;;;5055496;28;20033;-80
2022/03/04 02:43:08;;;;;;;54.63;28.10;;;;;;;;;;5078685;28;20106;-79
2022/03/04 02:45:34;;;;;;;56.13;28.00;;;;;;;;;;5066213;28;20053;-82
2022/03/04 02:48:02;;;;;;;55.33;27.48;;;;;;;;;;5072573;28;20059;-80
2022/03/04 02:50:29;;;;;;;55.83;28.58;;;;;;;;;;5068795;28;20047;-81
2022/03/04 02:52:56;;;;;;;50.35;26.52;;;;;;;;;;5058143;28;20040;-81
2022/03/04 02:55:22;;;;;;;53.55;29.10;;;;;;;;;;5058091;28;20044;-81
2022/03/04 02:57:48;;;;;;;50.45;26.27;;;;;;;;;;5070465;28;20117;-80
2022/03/04 03:00:14;;;;;;;52.72;27.13;;;;;;;;;;5064210;28;20036;-80
2022/03/04 03:02:40;;;;;;;52.55;28.20;;;;;;;;;;5047007;28;20124;-81
2022/03/04 03:05:06;;;;;;;52.80;26.73;;;;;;;;;;5046854;28;20040;-81
2022/03/04 03:07:32;;;;;;;51.72;27.73;;;;;;;;;;5062389;28;20106;-81
2022/03/04 03:09:58;;;;;;;55.30;27.27;;;;;;;;;;5063076;28;20041;-81
2022/03/04 03:12:25;;;;;;;52.03;27.52;;;;;;;;;;5046425;28;20040;-82
2022/03/04 03:14:51;;;;;;;57.38;28.63;;;;;;;;;;5064111;28;20051;-81
2022/03/04 03:17:17;;;;;;;58.38;28.83;;;;;;;;;;5066305;28;20119;-82
2022/03/04 03:19:42;;;;;;;55.83;28.92;;;;;;;;;;5050882;28;20048;-81
2022/03/04 03:22:09;;;;;;;58.95;28.92;;;;;;;;;;5066885;28;20037;-81
2022/03/04 03:24:35;;;;;;;52.78;28.10;;;;;;;;;;5048454;28;20036;-81
2022/03/04 03:27:01;;;;;;;54.42;28.95;;;;;;;;;;5049090;28;20040;-82
2022/03/04 03:29:27;;;;;;;58.65;28.80;;;;;;;;;;5066385;28;20345;-82
2022/03/04 03:31:53;;;;;;;55.53;28.42;;;;;;;;;;5065784;28;20048;-81
2022/03/04 03:34:19;;;;;;;60.55;29.52;;;;;;;;;;5084560;28;20036;-81
2022/03/04 03:36:45;;;;;;;58.13;30.45;;;;;;;;;;5062436;28;20059;-80
2022/03/04 03:39:10;;;;;;;62.80;31.38;;;;;;;;;;5062447;28;20032;-81
2022/03/04 03:41:37;;;;;;;57.47;29.83;;;;;;;;;;5062085;28;20097;-81
2022/03/04 03:44:03;;;;;;;56.35;29.25;;;;;;;;;;5062534;28;20105;-78
2022/03/04 03:46:29;;;;;;;54.28;28.60;;;;;;;;;;5046163;28;20050;-79
2022/03/04 03:48:54;;;;;;;57.95;28.80;;;;;;;;;;5063473;28;20067;-79
2022/03/04 03:51:20;;;;;;;54.50;29.25;;;;;;;;;;5063899;28;20069;-78
2022/03/04 03:53:47;;;;;;;52.90;28.30;;;;;;;;;;5050795;28;20052;-78
2022/03/04 03:56:13;;;;;;;55.40;28.92;;;;;;;;;;5067764;28;20041;-78
2022/03/04 03:58:39;;;;;;;58.40;29.23;;;;;;;;;;5050564;28;20041;-79
2022/03/04 04:01:05;;;;;;;58.88;30.38;;;;;;;;;;5065984;28;20043;-79
2022/03/04 04:03:31;;;;;;;57.30;29.42;;;;;;;;;;5047229;28;20032;-79
2022/03/04 04:05:57;;;;;;;56.88;29.95;;;;;;;;;;5047221;28;20071;-79
2022/03/04 04:08:23;;;;;;;61.22;30.88;;;;;;;;;;5056362;28;20055;-78
2022/03/04 04:10:49;;;;;;;59.83;30.45;;;;;;;;;;5074843;28;20035;-79
2022/03/04 04:13:15;;;;;;;59.83;30.02;;;;;;;;;;5045937;28;20148;-80
2022/03/04 04:15:41;;;;;;;56.20;29.70;;;;;;;;;;5062304;28;20143;-82
2022/03/04 04:18:08;;;;;;;56.60;30.73;;;;;;;;;;5062356;28;20047;-80
2022/03/04 04:20:35;;;;;;;57.55;29.88;;;;;;;;;;5061435;28;20032;-80
2022/03/04 04:23:01;;;;;;;59.10;31.52;;;;;;;;;;5062092;28;20047;-82
2022/03/04 04:25:27;;;;;;;60.70;30.70;;;;;;;;;;5061723;28;20032;-81
2022/03/04 04:27:53;;;;;;;64.82;32.08;;;;;;;;;;5044770;28;20040;-82
2022/03/04 04:30:19;;;;;;;58.35;29.95;;;;;;;;;;5045551;28;20036;-81
2022/03/04 04:32:44;;;;;;;63.17;30.83;;;;;;;;;;5067890;28;20111;-81
2022/03/04 04:35:10;;;;;;;60.20;30.05;;;;;;;;;;5066399;28;20127;-80
2022/03/04 04:37:36;;;;;;;64.00;31.52;;;;;;;;;;5061441;28;20074;-80
2022/03/04 04:40:04;;;;;;;60.78;31.30;;;;;;;;;;5079485;28;20067;-80
2022/03/04 04:42:30;;;;;;;61.22;31.27;;;;;;;;;;5045031;28;20098;-79
2022/03/04 04:44:56;;;;;;;64.55;32.58;;;;;;;;;;5031549;28;20065;-80
2022/03/04 04:47:22;;;;;;;61.85;31.42;;;;;;;;;;5021826;28;20382;-80
2022/03/04 04:49:48;;;;;;;64.63;32.17;;;;;;;;;;5037967;28;20052;-79
2022/03/04 04:52:14;;;;;;;66.25;34.55;;;;;;;;;;5020612;28;20453;-80
2022/03/04 04:54:40;;;;;;;65.88;33.38;;;;;;;;;;5038106;28;20453;-81
2022/03/04 04:57:06;;;;;;;63.22;33.40;;;;;;;;;;5037245;28;20037;-80
2022/03/04 04:59:32;;;;;;;70.63;33.83;;;;;;;;;;5037125;28;20048;-80
2022/03/04 05:01:59;;;;;;;67.75;34.42;;;;;;;;;;5037977;28;20038;-80
2022/03/04 05:04:25;;;;;;;67.07;33.15;;;;;;;;;;5022160;28;20037;-79
2022/03/04 05:06:51;;;;;;;63.47;33.80;;;;;;;;;;5037938;28;20091;-80
2022/03/04 05:09:17;;;;;;;69.63;32.20;;;;;;;;;;5038698;28;20041;-79
2022/03/04 05:11:43;;;;;;;67.57;34.15;;;;;;;;;;5039132;28;20120;-80
2022/03/04 05:14:09;;;;;;;73.20;35.70;;;;;;;;;;5040128;28;20056;-80
2022/03/04 05:16:35;;;;;;;64.13;32.30;;;;;;;;;;5040082;28;20047;-80
2022/03/04 05:19:01;;;;;;;66.57;32.40;;;;;;;;;;5039386;28;20038;-80
2022/03/04 05:21:27;;;;;;;66.93;34.47;;;;;;;;;;5038811;28;20034;-82
2022/03/04 05:23:59;;;;;;;65.30;33.17;;;;;;;;;;5021169;28;20073;-82
2022/03/04 05:26:27;;;;;;;63.95;33.55;;;;;;;;;;5038626;28;20044;-81
2022/03/04 05:28:53;;;;;;;63.58;32.60;;;;;;;;;;5020983;28;20041;-81
2022/03/04 05:31:19;;;;;;;70.18;32.83;;;;;;;;;;5020887;28;20041;-81
2022/03/04 05:33:45;;;;;;;63.55;32.38;;;;;;;;;;5038703;28;20102;-80
2022/03/04 05:36:10;;;;;;;70.43;34.75;;;;;;;;;;5021724;28;20041;-81
2022/03/04 05:38:36;;;;;;;66.78;34.58;;;;;;;;;;5022291;28;20042;-80
2022/03/04 05:41:03;;;;;;;66.65;33.60;;;;;;;;;;5021252;28;20045;-80
2022/03/04 05:43:29;;;;;;;67.32;32.95;;;;;;;;;;5039084;28;20041;-82
2022/03/04 05:45:55;;;;;;;68.30;32.72;;;;;;;;;;5021441;28;20123;-82
2022/03/04 05:48:21;;;;;;;70.75;33.80;;;;;;;;;;5021855;28;20051;-82
2022/03/04 05:50:47;;;;;;;73.00;34.17;;;;;;;;;;5042506;28;20112;-79
2022/03/04 05:53:14;;;;;;;66.30;33.97;;;;;;;;;;5047027;28;20049;-81
2022/03/04 05:55:40;;;;;;;64.28;33.10;;;;;;;;;;5031558;28;20041;-83
2022/03/04 05:58:06;;;;;;;68.07;33.13;;;;;;;;;;5025899;28;20381;-83
2022/03/04 06:00:32;;;;;;;68.85;35.30;;;;;;;;;;5037748;28;20044;-82
2022/03/04 06:02:59;;;;;;;67.68;33.63;;;;;;;;;;5021404;28;20037;-83
2022/03/04 06:05:25;;;;;;;68.43;34.05;;;;;;;;;;5038174;28;20471;-82
2022/03/04 06:07:51;;;;;;;71.22;34.90;;;;;;;;;;5041411;28;20077;-84
2022/03/04 06:10:17;;;;;;;69.15;34.03;;;;;;;;;;5023106;28;20041;-83
2022/03/04 06:12:43;;;;;;;66.90;33.47;;;;;;;;;;5022575;28;20048;-83
2022/03/04 06:15:09;;;;;;;69.97;35.50;;;;;;;;;;5021238;28;20373;-81
2022/03/04 06:17:36;;;;;;;66.68;33.65;;;;;;;;;;5020307;28;20042;-80
2022/03/04 06:20:02;;;;;;;71.82;34.15;;;;;;;;;;5041601;28;20084;-82
2022/03/04 06:22:28;;;;;;;69.70;32.30;;;;;;;;;;5027406;28;20089;-83
2022/03/04 06:24:54;;;;;;;66.10;33.05;;;;;;;;;;5025572;28;20177;-83
2022/03/04 06:27:20;;;;;;;68.95;33.47;;;;;;;;;;5027546;28;20052;-84
2022/03/04 06:29:46;;;;;;;66.63;32.58;;;;;;;;;;5039507;28;20051;-82
2022/03/04 06:32:14;;;;;;;68.35;32.70;;;;;;;;;;5020636;28;20092;-82
2022/03/04 06:34:40;;;;;;;64.63;32.40;;;;;;;;;;5029354;28;20045;-80
2022/03/04 06:37:06;;;;;;;64.70;32.72;;;;;;;;;;5037401;28;20060;-80
2022/03/04 06:39:32;;;;;;;74.72;33.22;;;;;;;;;;5053287;28;20068;-83
2022/03/04 06:41:58;;;;;;;61.80;32.17;;;;;;;;;;5037272;28;20034;-80
2022/03/04 06:44:25;;;;;;;70.07;32.92;;;;;;;;;;5053033;28;20041;-81
2022/03/04 06:46:52;;;;;;;63.72;33.28;;;;;;;;;;5054494;28;20029;-79
2022/03/04 06:49:18;;;;;;;62.90;32.35;;;;;;;;;;5035257;28;20041;-80
2022/03/04 06:51:44;;;;;;;67.25;32.40;;;;;;;;;;5034632;28;20045;-83
2022/03/04 06:54:10;;;;;;;62.95;33.20;;;;;;;;;;5051729;28;20117;-83
2022/03/04 06:56:36;;;;;;;75.57;35.25;;;;;;;;;;5027806;28;20048;-83
2022/03/04 06:59:02;;;;;;;63.30;33.15;;;;;;;;;;5027292;28;20037;-83
2022/03/04 07:01:28;;;;;;;62.30;33.17;;;;;;;;;;5043219;28;20124;-81
2022/03/04 07:03:54;;;;;;;63.78;32.55;;;;;;;;;;5044657;28;20041;-81
2022/03/04 07:06:20;;;;;;;72.47;33.03;;;;;;;;;;5037355;28;20072;-82
2022/03/04 07:08:46;;;;;;;65.10;32.80;;;;;;;;;;5044768;28;20198;-81
2022/03/04 07:11:12;;;;;;;63.35;32.50;;;;;;;;;;5026476;28;20441;-80
2022/03/04 07:13:38;;;;;;;66.45;32.85;;;;;;;;;;5027321;28;20041;-81
2022/03/04 07:16:05;;;;;;;66.90;34.53;;;;;;;;;;5041508;28;20133;-83
2022/03/04 07:18:31;;;;;;;66.32;33.65;;;;;;;;;;5024497;28;20060;-83
2022/03/04 07:20:57;;;;;;;62.75;32.05;;;;;;;;;;5039854;28;20128;-83
2022/03/04 07:23:24;;;;;;;60.72;31.92;;;;;;;;;;5025712;28;20033;-83
2022/03/04 07:25:50;;;;;;;62.67;32.80;;;;;;;;;;5047440;28;20041;-82
2022/03/04 07:28:16;;;;;;;63.80;32.83;;;;;;;;;;5045610;28;20228;-81
2022/03/04 07:30:42;;;;;;;71.75;33.88;;;;;;;;;;5039984;28;20041;-81
2022/03/04 07:33:08;;;;;;;69.78;34.05;;;;;;;;;;5024962;28;20037;-80
2022/03/04 07:35:34;;;;;;;64.82;33.10;;;;;;;;;;5042995;28;20061;-81
2022/03/04 07:38:00;;;;;;;67.13;34.30;;;;;;;;;;5024899;28;20041;-81
2022/03/04 07:40:26;;;;;;;73.57;36.50;;;;;;;;;;5025188;28;20044;-81
2022/03/04 07:42:52;;;;;;;69.88;35.92;;;;;;;;;;5024036;28;20357;-82
2022/03/04 07:45:19;;;;;;;68.78;36.28;;;;;;;;;;5044563;28;20045;-82
2022/03/04 07:47:45;;;;;;;69.40;37.08;;;;;;;;;;5043361;28;20048;-84
2022/03/04 07:50:13;;;;;;;73.47;37.03;;;;;;;;;;5043049;28;20041;-83
2022/03/04 07:52:39;;;;;;;74.43;36.67;;;;;;;;;;5041242;28;20042;-81
2022/03/04 07:55:05;;;;;;;78.22;37.15;;;;;;;;;;5042442;28;20544;-81
2022/03/04 07:57:31;;;;;;;68.85;36.05;;;;;;;;;;5042352;28;20377;-81
2022/03/04 07:59:57;;;;;;;72.78;36.00;;;;;;;;;;5050133;28;20034;-80
2022/03/04 08:02:23;;;;;;;70.47;35.80;;;;;;;;;;5049940;28;20063;-83
2022/03/04 08:04:50;;;;;;;62.50;33.50;;;;;;;;;;5026439;28;20033;-84
2022/03/04 08:07:17;;;;;;;71.53;35.05;;;;;;;;;;5025077;28;20041;-82
2022/03/04 08:09:43;;;;;;;72.72;34.75;;;;;;;;;;5041318;28;20365;-81
2022/03/04 08:12:09;;;;;;;72.15;34.92;;;;;;;;;;5026775;28;20124;-85
2022/03/04 08:14:35;;;;;;;66.22;33.13;;;;;;;;;;5030517;28;20042;-82
2022/03/04 08:17:01;;;;;;;64.20;32.40;;;;;;;;;;5027653;28;20064;-81
2022/03/04 08:19:28;;;;;;;63.38;33.13;;;;;;;;;;5052147;28;20037;-79
2022/03/04 08:21:54;;;;;;;65.28;32.92;;;;;;;;;;5054378;28;20042;-81
2022/03/04 08:24:20;;;;;;;66.05;31.80;;;;;;;;;;5053709;28;20037;-82
2022/03/04 08:26:46;;;;;;;60.65;30.42;;;;;;;;;;5049981;28;20073;-80
2022/03/04 08:29:12;;;;;;;67.70;32.15;;;;;;;;;;5038039;28;20049;-81
2022/03/04 08:31:38;;;;;;;60.10;32.50;;;;;;;;;;5052726;28;20108;-81
2022/03/04 08:34:04;;;;;;;59.63;30.90;;;;;;;;;;5025022;28;20102;-81
2022/03/04 08:36:31;;;;;;;61.85;31.20;;;;;;;;;;5023390;28;20063;-81
2022/03/04 08:38:57;;;;;;;62.17;31.20;;;;;;;;;;5021641;28;20049;-82
2022/03/04 08:41:24;;;;;;;57.92;30.33;;;;;;;;;;5022531;28;20064;-82
2022/03/04 08:43:51;;;;;;;57.03;29.83;;;;;;;;;;5027141;28;20124;-81
2022/03/04 08:46:17;;;;;;;56.35;29.63;;;;;;;;;;5078090;28;20077;-81
2022/03/04 08:48:43;;;;;;;55.28;28.40;;;;;;;;;;5055220;28;20048;-80
2022/03/04 08:51:09;;;;;;;58.17;28.05;;;;;;;;;;5049568;28;20122;-80
2022/03/04 08:53:35;;;;;;;54.55;27.05;;;;;;;;;;5048534;28;20044;-82
2022/03/04 08:56:01;;;;;;;55.00;28.25;;;;;;;;;;5065156;28;20051;-82
2022/03/04 08:58:27;;;;;;;54.35;28.65;;;;;;;;;;5080769;28;20036;-82
2022/03/04 09:00:53;;;;;;;49.25;27.27;;;;;;;;;;5047182;28;20097;-82
2022/03/04 09:03:19;;;;;;;52.60;26.83;;;;;;;;;;5063225;28;20420;-83
2022/03/04 09:05:45;;;;;;;47.78;27.02;;;;;;;;;;5065236;28;20040;-82
2022/03/04 09:08:11;;;;;;;63.78;27.85;;;;;;;;;;5048726;28;20126;-82
2022/03/04 09:10:37;;;;;;;46.88;24.90;;;;;;;;;;5060588;28;20038;-80
2022/03/04 09:13:04;;;;;;;46.53;25.83;;;;;;;;;;5082137;28;20036;-81
2022/03/04 09:15:30;;;;;;;47.60;24.42;;;;;;;;;;5055873;28;20040;-80
2022/03/04 09:17:56;;;;;;;49.28;25.23;;;;;;;;;;5043060;28;20777;-80
2022/03/04 09:20:22;;;;;;;44.78;24.20;;;;;;;;;;5042583;28;20033;-79
2022/03/04 09:22:48;;;;;;;46.33;24.35;;;;;;;;;;5043519;28;20043;-80
2022/03/04 09:25:14;;;;;;;49.90;24.95;;;;;;;;;;5062187;28;20050;-81
2022/03/04 09:27:44;;;;;;;46.20;24.25;;;;;;;;;;5065234;28;20131;-80
2022/03/04 09:30:11;;;;;;;47.75;24.23;;;;;;;;;;5044538;28;20076;-80
2022/03/04 09:32:37;;;;;;;41.53;22.65;;;;;;;;;;5062696;28;20045;-82
2022/03/04 09:35:05;;;;;;;44.17;23.13;;;;;;;;;;5044520;28;20574;-82
2022/03/04 09:37:31;;;;;;;41.50;22.38;;;;;;;;;;5049326;28;20064;-79
2022/03/04 09:39:57;;;;;;;47.67;22.77;;;;;;;;;;5048887;28;20447;-79
2022/03/04 09:42:23;;;;;;;45.75;22.88;;;;;;;;;;5079483;28;20040;-82
2022/03/04 09:44:49;;;;;;;41.35;22.13;;;;;;;;;;5044181;28;20064;-82
2022/03/04 09:47:16;;;;;;;39.85;22.05;;;;;;;;;;5062072;28;20123;-82
2022/03/04 09:49:42;;;;;;;36.55;20.00;;;;;;;;;;5062561;28;20047;-81
2022/03/04 09:52:08;;;;;;;38.08;21.25;;;;;;;;;;5064989;28;20134;-79
2022/03/04 09:54:34;;;;;;;41.40;21.15;;;;;;;;;;5069894;28;20079;-81
2022/03/04 09:57:00;;;;;;;40.00;21.42;;;;;;;;;;5061412;28;20044;-82
2022/03/04 09:59:26;;;;;;;36.75;20.25;;;;;;;;;;5044470;28;20076;-80
2022/03/04 10:01:52;;;;;;;35.08;20.17;;;;;;;;;;5079433;28;20037;-80
2022/03/04 10:04:18;;;;;;;39.53;21.45;;;;;;;;;;5045134;28;20047;-80
2022/03/04 10:06:50;;;;;;;36.88;21.13;;;;;;;;;;5045497;28;20040;-81
2022/03/04 10:09:33;;;;;;;36.63;20.40;;;;;;;;;;5046462;28;20735;-82
2022/03/04 10:12:03;;;;;;;34.72;19.55;;;;;;;;;;5048891;28;20048;-80
2022/03/04 10:14:29;;;;;;;35.95;20.13;;;;;;;;;;5050490;28;20040;-80
2022/03/04 10:16:56;;;;;;;36.95;20.95;;;;;;;;;;5050139;28;20361;-80
2022/03/04 10:19:23;;;;;;;40.95;20.80;;;;;;;;;;5049088;28;20036;-80
2022/03/04 10:21:52;;;;;;;35.13;20.58;;;;;;;;;;5048873;28;20056;-79
2022/03/04 10:24:28;;;;;;;36.45;20.50;;;;;;;;;;5066056;28;20048;-80
2022/03/04 10:26:58;;;;;;;37.58;20.77;;;;;;;;;;5049262;28;20071;-80
2022/03/04 10:29:24;;;;;;;35.63;20.95;;;;;;;;;;5048272;28;20056;-80
2022/03/04 10:32:13;;;;;;;34.75;20.42;;;;;;;;;;5048518;28;20043;-81
2022/03/04 10:34:51;;;;;;;42.75;21.58;;;;;;;;;;5065355;28;20451;-80
2022/03/04 10:37:19;;;;;;;36.65;21.42;;;;;;;;;;5066030;28;20044;-80
2022/03/04 10:40:01;;;;;;;38.97;22.05;;;;;;;;;;5048184;28;20048;-82
2022/03/04 10:42:46;;;;;;;40.20;22.27;;;;;;;;;;5049176;28;20044;-81
2022/03/04 10:45:14;;;;;;;40.78;21.60;;;;;;;;;;5053636;28;20287;-80
2022/03/04 10:47:40;;;;;;;40.83;22.35;;;;;;;;;;5049670;28;20115;-80
2022/03/04 10:50:07;;;;;;;38.72;22.27;;;;;;;;;;5048934;28;20481;-81
2022/03/04 10:52:33;;;;;;;34.88;21.55;;;;;;;;;;5066129;28;20044;-82
2022/03/04 10:55:00;;;;;;;38.05;21.83;;;;;;;;;;5065656;28;20356;-80
2022/03/04 10:57:26;;;;;;;38.92;22.35;;;;;;;;;;5048276;28;20051;-79
2022/03/04 10:59:58;;;;;;;41.95;22.98;;;;;;;;;;5047522;28;20036;-81
2022/03/04 11:02:43;;;;;;;44.47;23.63;;;;;;;;;;5048693;28;20040;-80
2022/03/04 11:05:09;;;;;;;36.97;21.63;;;;;;;;;;5063810;28;20726;-80
2022/03/04 11:07:35;;;;;;;37.55;23.42;;;;;;;;;;5064905;28;20101;-82
2022/03/04 11:10:02;;;;;;;43.15;23.23;;;;;;;;;;5067203;28;20036;-81
2022/03/04 11:12:28;;;;;;;40.70;22.55;;;;;;;;;;5047646;28;20047;-80
2022/03/04 11:14:54;;;;;;;39.97;22.58;;;;;;;;;;5082049;28;20052;-79
2022/03/04 11:17:20;;;;;;;37.47;21.23;;;;;;;;;;5047059;28;20364;-80
2022/03/04 11:19:46;;;;;;;36.92;21.75;;;;;;;;;;5047478;28;20036;-81
2022/03/04 11:22:12;;;;;;;38.10;21.70;;;;;;;;;;5081625;28;20028;-82
2022/03/04 11:24:39;;;;;;;34.90;21.13;;;;;;;;;;5047911;28;20523;-82
2022/03/04 11:27:05;;;;;;;36.13;21.38;;;;;;;;;;5064665;28;20044;-81
2022/03/04 11:29:32;;;;;;;37.08;21.50;;;;;;;;;;5064842;28;20348;-80
2022/03/04 11:31:59;;;;;;;37.67;21.45;;;;;;;;;;5047849;28;20075;-79
2022/03/04 11:34:32;;;;;;;31.42;18.98;;;;;;;;;;5048367;28;20052;-80
2022/03/04 11:37:03;;;;;;;37.28;20.90;;;;;;;;;;5067636;28;20436;-80
2022/03/04 11:39:29;;;;;;;34.28;20.10;;;;;;;;;;5083522;28;20032;-80
2022/03/04 11:41:55;;;;;;;35.28;19.90;;;;;;;;;;5049641;28;20044;-82
2022/03/04 11:44:22;;;;;;;36.67;19.92;;;;;;;;;;5066501;28;20055;-82
2022/03/04 11:46:51;;;;;;;38.25;20.77;;;;;;;;;;5066813;28;20036;-82
2022/03/04 11:49:27;;;;;;;37.22;21.10;;;;;;;;;;5066096;28;20127;-79
2022/03/04 11:52:08;;;;;;;32.17;19.80;;;;;;;;;;5084728;28;20040;-83
2022/03/04 11:54:35;;;;;;;37.55;20.30;;;;;;;;;;5084514;28;20049;-81
2022/03/04 11:57:01;;;;;;;31.33;18.77;;;;;;;;;;5066979;28;20044;-84
2022/03/04 11:59:27;;;;;;;32.50;19.75;;;;;;;;;;5066545;28;20460;-82
2022/03/04 12:01:55;;;;;;;33.70;19.95;;;;;;;;;;5049434;28;20051;-82
2022/03/04 12:04:21;;;;;;;38.30;21.48;;;;;;;;;;5051571;28;20048;-82
2022/03/04 12:07:06;;;;;;;34.85;21.63;;;;;;;;;;5066651;28;20055;-81
2022/03/04 12:09:32;;;;;;;36.47;20.88;;;;;;;;;;5049095;28;20040;-81
2022/03/04 12:12:18;;;;;;;40.63;22.48;;;;;;;;;;5049422;28;20036;-79
2022/03/04 12:14:47;;;;;;;37.50;22.65;;;;;;;;;;5069990;28;20096;-80
2022/03/04 12:17:13;;;;;;;33.63;20.13;;;;;;;;;;5088309;28;20055;-81
2022/03/04 12:19:43;;;;;;;36.97;21.23;;;;;;;;;;5050692;28;20037;-81
2022/03/04 12:22:13;;;;;;;35.13;21.50;;;;;;;;;;5065803;28;20032;-81
2022/03/04 12:24:39;;;;;;;35.65;21.25;;;;;;;;;;5066622;28;20037;-79
2022/03/04 12:27:05;;;;;;;34.40;20.83;;;;;;;;;;5072037;28;20043;-81
2022/03/04 12:29:44;;;;;;;36.38;22.10;;;;;;;;;;5065936;28;20054;-81
2022/03/04 12:32:11;;;;;;;38.00;21.83;;;;;;;;;;5077430;28;20040;-80
2022/03/04 12:34:41;;;;;;;32.35;18.88;;;;;;;;;;5048396;28;20052;-80
2022/03/04 12:37:08;;;;;;;31.23;19.02;;;;;;;;;;5048184;28;20059;-81
2022/03/04 12:39:38;;;;;;;35.08;20.80;;;;;;;;;;5047906;28;20039;-80
2022/03/04 12:42:04;;;;;;;36.20;20.27;;;;;;;;;;5082307;28;20036;-81
2022/03/04 12:44:30;;;;;;;39.88;21.20;;;;;;;;;;5049087;28;20102;-82
2022/03/04 12:46:56;;;;;;;41.50;20.88;;;;;;;;;;5066822;28;20356;-82
2022/03/04 12:49:26;;;;;;;34.83;20.90;;;;;;;;;;5071205;28;20044;-81
2022/03/04 12:51:54;;;;;;;37.63;21.52;;;;;;;;;;5052546;28;20045;-83
2022/03/04 12:54:21;;;;;;;38.92;21.30;;;;;;;;;;5058000;28;20024;-77
2022/03/04 12:56:50;;;;;;;39.25;22.15;;;;;;;;;;5080369;28;20055;-83
2022/03/04 12:59:16;;;;;;;38.42;22.55;;;;;;;;;;5073087;28;20057;-82
2022/03/04 13:01:43;;;;;;;35.03;21.50;;;;;;;;;;5064060;28;20040;-81
2022/03/04 13:04:09;;;;;;;37.40;22.67;;;;;;;;;;5063595;28;20132;-81
2022/03/04 13:06:35;;;;;;;40.30;22.38;;;;;;;;;;5064940;28;20088;-82
2022/03/04 13:09:02;;;;;;;35.90;21.20;;;;;;;;;;5047063;28;20044;-80
2022/03/04 13:11:32;;;;;;;36.85;22.00;;;;;;;;;;5050266;28;20033;-82
2022/03/04 13:13:59;;;;;;;37.78;20.73;;;;;;;;;;5066098;28;20041;-81
2022/03/04 13:16:33;;;;;;;39.47;22.38;;;;;;;;;;5049987;28;20048;-80
2022/03/04 13:19:00;;;;;;;39.33;21.40;;;;;;;;;;5068778;28;20121;-81
2022/03/04 13:21:36;;;;;;;36.25;21.17;;;;;;;;;;5060387;28;20024;-79
2022/03/04 13:24:06;;;;;;;37.58;20.95;;;;;;;;;;5081087;28;20044;-81
2022/03/04 13:26:32;;;;;;;34.03;21.08;;;;;;;;;;5063864;28;20036;-79
2022/03/04 13:28:59;;;;;;;35.40;20.73;;;;;;;;;;5066547;28;20050;-79
2022/03/04 13:31:29;;;;;;;35.33;20.88;;;;;;;;;;5072578;28;20068;-79
2022/03/04 13:33:57;;;;;;;36.65;21.60;;;;;;;;;;5071387;28;20044;-80
2022/03/04 13:36:48;;;;;;;38.65;21.83;;;;;;;;;;5069553;28;20528;-79
2022/03/04 13:39:14;;;;;;;34.95;20.67;;;;;;;;;;5064069;28;20040;-81
2022/03/04 13:41:40;;;;;;;39.08;22.20;;;;;;;;;;5066561;28;20091;-78
2022/03/04 13:44:10;;;;;;;36.83;21.27;;;;;;;;;;5070792;28;20036;-79
2022/03/04 13:46:36;;;;;;;37.10;22.13;;;;;;;;;;5065912;28;20032;-81
2022/03/04 13:49:04;;;;;;;36.83;21.15;;;;;;;;;;5048354;28;20044;-80
2022/03/04 13:51:31;;;;;;;35.83;20.83;;;;;;;;;;5068882;28;20054;-80
2022/03/04 13:53:57;;;;;;;32.35;20.05;;;;;;;;;;5048587;28;20086;-79
2022/03/04 13:56:26;;;;;;;31.75;19.52;;;;;;;;;;5056881;28;20074;-80
2022/03/04 13:58:57;;;;;;;32.70;20.15;;;;;;;;;;5059421;28;20036;-78
2022/03/04 14:01:23;;;;;;;33.92;20.00;;;;;;;;;;5054059;28;20036;-80
2022/03/04 14:03:50;;;;;;;33.05;20.05;;;;;;;;;;5057004;28;20032;-82
2022/03/04 14:06:17;;;;;;;33.00;19.20;;;;;;;;;;5057527;28;20051;-80
2022/03/04 14:08:43;;;;;;;29.85;19.05;;;;;;;;;;5091186;28;20086;-81
2022/03/04 14:11:10;;;;;;;30.33;18.60;;;;;;;;;;5074757;28;20048;-82
2022/03/04 14:13:36;;;;;;;31.80;18.52;;;;;;;;;;5067814;28;20048;-82
2022/03/04 14:16:02;;;;;;;30.73;18.13;;;;;;;;;;5069984;28;20066;-79